Time;durP1;ratioP1;P1;durP2;ratioP2;P2;SDS_P1;SDS_P2;PMS_P1;PMS_P2;Temp;Humidity;BMP_temperature;BMP_pressure;BME280_temperature;BME280_humidity;BME280_pressure;Samples;Min_cycle;Max_cycle;Signal;HPM_P1;HPM_P2
2023/02/27 00:00:29;;;;;;;0.50;0.40;;;0.80;99.90;;;;;;5097913;28;20733;-51
2023/02/27 00:02:57;;;;;;;0.90;0.40;;;0.70;99.90;;;;;;5097867;28;20425;-50
2023/02/27 00:05:24;;;;;;;0.50;0.30;;;0.60;99.90;;;;;;5097852;28;20849;-54
2023/02/27 00:07:52;;;;;;;0.80;0.30;;;0.60;99.90;;;;;;5096760;28;20466;-52
2023/02/27 00:10:19;;;;;;;0.70;0.40;;;0.80;99.90;;;;;;5096538;28;20432;-54
2023/02/27 00:12:48;;;;;;;0.60;0.40;;;0.60;99.90;;;;;;5097069;28;20417;-54
2023/02/27 00:15:17;;;;;;;0.77;0.40;;;0.60;99.90;;;;;;5097513;28;20861;-54
2023/02/27 00:17:45;;;;;;;0.90;0.40;;;0.40;99.90;;;;;;5097318;28;20422;-53
2023/02/27 00:20:16;;;;;;;0.90;0.40;;;0.50;99.90;;;;;;5097762;28;20845;-54
2023/02/27 00:22:43;;;;;;;1.00;0.40;;;0.70;99.90;;;;;;5097739;28;20418;-51
2023/02/27 00:25:11;;;;;;;0.80;0.40;;;0.70;99.90;;;;;;5097400;28;20783;-54
2023/02/27 00:27:39;;;;;;;1.10;0.30;;;0.60;99.90;;;;;;5097627;28;20837;-51
2023/02/27 00:30:10;;;;;;;1.10;0.40;;;0.70;99.90;;;;;;5098263;28;20434;-51
2023/02/27 00:32:37;;;;;;;0.90;0.40;;;0.60;99.90;;;;;;5097740;28;20424;-55
2023/02/27 00:35:05;;;;;;;0.50;0.30;;;0.60;99.90;;;;;;5097247;28;20429;-54
2023/02/27 00:37:33;;;;;;;0.77;0.40;;;0.50;99.90;;;;;;5097462;28;20925;-55
2023/02/27 00:40:00;;;;;;;0.70;0.40;;;0.40;99.90;;;;;;5096359;28;20872;-53
2023/02/27 00:42:29;;;;;;;0.60;0.40;;;0.30;99.90;;;;;;5097603;28;20418;-53
2023/02/27 00:44:56;;;;;;;0.50;0.30;;;0.10;99.90;;;;;;5097573;28;20932;-51
2023/02/27 00:47:25;;;;;;;0.83;0.40;;;0.40;99.90;;;;;;5097364;28;20425;-53
2023/02/27 00:49:52;;;;;;;0.60;0.35;;;0.60;99.90;;;;;;5097213;28;20426;-52
2023/02/27 00:52:19;;;;;;;1.30;0.60;;;0.70;99.90;;;;;;5097521;28;20422;-53
2023/02/27 00:54:46;;;;;;;0.90;0.40;;;0.70;99.90;;;;;;5097171;28;20425;-54
2023/02/27 00:57:13;;;;;;;0.70;0.40;;;0.40;99.90;;;;;;5096337;28;20422;-55
2023/02/27 00:59:40;;;;;;;1.20;0.50;;;0.60;99.90;;;;;;5097538;28;20811;-55
2023/02/27 01:02:07;;;;;;;0.60;0.40;;;0.50;99.90;;;;;;5096796;28;20780;-54
2023/02/27 01:04:36;;;;;;;0.65;0.40;;;0.40;99.90;;;;;;5097439;28;20580;-53
2023/02/27 01:07:04;;;;;;;0.70;0.40;;;0.40;99.90;;;;;;5097634;28;20504;-55
2023/02/27 01:09:31;;;;;;;0.50;0.30;;;0.40;99.90;;;;;;5096939;28;20834;-56
2023/02/27 01:11:58;;;;;;;0.73;0.43;;;0.60;99.90;;;;;;5096929;28;20425;-55
2023/02/27 01:14:25;;;;;;;0.95;0.40;;;1.10;99.90;;;;;;5096799;28;20532;-53
2023/02/27 01:16:52;;;;;;;0.70;0.30;;;1.00;99.90;;;;;;5097295;28;20434;-51
2023/02/27 01:19:19;;;;;;;0.95;0.40;;;1.00;99.90;;;;;;5096600;28;20429;-52
2023/02/27 01:21:48;;;;;;;0.70;0.30;;;0.80;99.90;;;;;;5097096;28;20437;-54
2023/02/27 01:24:15;;;;;;;0.60;0.40;;;0.80;99.90;;;;;;5096395;28;20438;-55
2023/02/27 01:26:43;;;;;;;0.80;0.40;;;0.90;99.90;;;;;;5096608;28;20807;-54
2023/02/27 01:29:10;;;;;;;0.70;0.40;;;0.70;99.90;;;;;;5096438;28;20437;-55
2023/02/27 01:31:37;;;;;;;0.60;0.40;;;0.70;99.90;;;;;;5097101;28;20825;-54
2023/02/27 01:34:04;;;;;;;0.70;0.43;;;0.80;99.90;;;;;;5096062;28;20426;-54
2023/02/27 01:36:31;;;;;;;0.77;0.40;;;0.70;99.90;;;;;;5096804;28;20694;-52
2023/02/27 01:39:00;;;;;;;0.90;0.40;;;0.50;99.90;;;;;;5096293;28;20418;-53
2023/02/27 01:41:27;;;;;;;0.90;0.40;;;0.60;99.90;;;;;;5096314;28;20422;-54
2023/02/27 01:43:57;;;;;;;0.80;0.40;;;0.60;99.90;;;;;;5095994;28;20479;-53
2023/02/27 01:46:25;;;;;;;0.63;0.40;;;0.70;99.90;;;;;;5095679;28;20418;-55
2023/02/27 01:48:58;;;;;;;0.80;0.30;;;1.10;99.90;;;;;;5096179;28;20422;-53
2023/02/27 01:51:30;;;;;;;1.00;0.40;;;1.20;99.90;;;;;;5096725;28;20421;-51
2023/02/27 01:53:58;;;;;;;0.57;0.40;;;1.00;99.90;;;;;;5094974;28;20783;-56
2023/02/27 01:56:30;;;;;;;1.27;0.40;;;0.90;99.90;;;;;;5095944;28;20821;-54
2023/02/27 01:59:02;;;;;;;0.63;0.40;;;0.70;99.90;;;;;;5095920;28;20425;-53
2023/02/27 02:01:33;;;;;;;0.80;0.40;;;0.60;99.90;;;;;;5096017;28;20418;-53
2023/02/27 02:04:05;;;;;;;0.70;0.50;;;0.70;99.90;;;;;;5095582;28;20418;-54
2023/02/27 02:06:36;;;;;;;0.70;0.40;;;0.50;99.90;;;;;;5096120;28;20417;-56
2023/02/27 02:09:05;;;;;;;0.70;0.40;;;0.40;99.90;;;;;;5095671;28;20422;-55
2023/02/27 02:11:33;;;;;;;0.70;0.40;;;0.00;99.90;;;;;;5095408;28;20816;-54
2023/02/27 02:14:02;;;;;;;0.90;0.40;;;0.00;99.90;;;;;;5096018;28;20852;-55
2023/02/27 02:16:42;;;;;;;0.80;0.50;;;0.20;99.90;;;;;;5095857;28;20479;-50
2023/02/27 02:19:35;;;;;;;0.60;0.40;;;0.10;99.90;;;;;;5095895;28;20426;-51
2023/02/27 02:22:29;;;;;;;0.80;0.40;;;0.10;99.90;;;;;;5092287;28;20430;-57
2023/02/27 02:25:32;;;;;;;1.00;0.40;;;0.30;99.90;;;;;;5096020;28;20438;-50
2023/02/27 02:28:10;;;;;;;1.20;0.40;;;0.50;99.90;;;;;;5095554;28;20424;-52
2023/02/27 02:31:10;;;;;;;0.80;0.40;;;0.60;99.90;;;;;;5095717;28;20422;-55
2023/02/27 02:34:08;;;;;;;0.70;0.40;;;0.50;99.90;;;;;;5094936;28;20421;-55
2023/02/27 02:37:12;;;;;;;0.80;0.40;;;0.40;99.90;;;;;;5095647;28;20418;-50
2023/02/27 02:40:05;;;;;;;0.90;0.40;;;0.40;99.90;;;;;;5095486;28;20825;-53
2023/02/27 02:42:37;;;;;;;1.00;0.40;;;0.30;99.90;;;;;;5094627;28;20409;-54
2023/02/27 02:45:14;;;;;;;0.80;0.50;;;0.30;99.90;;;;;;5094472;28;20444;-56
2023/02/27 02:47:55;;;;;;;0.70;0.40;;;0.30;99.90;;;;;;5095234;28;20429;-54
2023/02/27 02:50:28;;;;;;;1.50;0.50;;;0.40;99.90;;;;;;5094603;28;20518;-53
2023/02/27 02:53:04;;;;;;;1.30;0.40;;;0.30;99.90;;;;;;5092779;28;20425;-51
2023/02/27 02:55:35;;;;;;;0.70;0.40;;;0.20;99.90;;;;;;5093432;28;20428;-51
2023/02/27 02:58:08;;;;;;;0.80;0.40;;;0.40;99.90;;;;;;5093206;28;20768;-53
2023/02/27 03:00:39;;;;;;;0.90;0.50;;;0.40;99.90;;;;;;5093577;28;20777;-52
2023/02/27 03:03:12;;;;;;;0.80;0.50;;;0.30;99.90;;;;;;5092634;28;20714;-50
2023/02/27 03:05:46;;;;;;;1.15;0.50;;;0.20;99.90;;;;;;5094103;28;20434;-52
2023/02/27 03:08:19;;;;;;;1.25;0.50;;;0.20;99.90;;;;;;5094841;28;20771;-52
2023/02/27 03:10:51;;;;;;;0.80;0.50;;;0.50;99.90;;;;;;5094729;28;20433;-53
2023/02/27 03:13:24;;;;;;;0.67;0.40;;;0.60;99.90;;;;;;5094042;28;20955;-50
2023/02/27 03:15:58;;;;;;;1.20;0.50;;;0.50;99.90;;;;;;5094821;28;20422;-55
2023/02/27 03:18:29;;;;;;;0.70;0.40;;;0.50;99.90;;;;;;5094913;28;20421;-50
2023/02/27 03:21:01;;;;;;;0.80;0.50;;;0.50;99.90;;;;;;5094387;28;20426;-53
2023/02/27 03:23:35;;;;;;;0.90;0.50;;;0.50;99.90;;;;;;5093983;28;20418;-55
2023/02/27 03:26:05;;;;;;;0.80;0.40;;;0.50;99.90;;;;;;5094884;28;20456;-51
2023/02/27 03:28:36;;;;;;;1.00;0.50;;;0.40;99.90;;;;;;5094684;28;20425;-54
2023/02/27 03:31:08;;;;;;;1.58;0.50;;;0.40;99.90;;;;;;5093555;28;20437;-55
2023/02/27 03:33:40;;;;;;;0.70;0.50;;;0.30;99.90;;;;;;5094897;28;20737;-56
2023/02/27 03:36:11;;;;;;;0.70;0.50;;;0.20;99.90;;;;;;5095052;28;20441;-54
2023/02/27 03:38:44;;;;;;;0.60;0.40;;;0.20;99.90;;;;;;5094737;28;20425;-54
2023/02/27 03:41:20;;;;;;;0.93;0.40;;;0.30;99.90;;;;;;5094921;28;20418;-54
2023/02/27 03:43:53;;;;;;;0.80;0.50;;;0.40;99.90;;;;;;5094815;28;20730;-55
2023/02/27 03:46:23;;;;;;;1.30;0.50;;;0.70;99.90;;;;;;5094078;28;20845;-50
2023/02/27 03:48:50;;;;;;;0.70;0.40;;;0.50;99.90;;;;;;5093283;28;20414;-54
2023/02/27 03:51:20;;;;;;;1.40;0.40;;;0.40;99.90;;;;;;5094386;28;20425;-52
2023/02/27 03:53:50;;;;;;;0.80;0.50;;;0.20;99.90;;;;;;5092892;28;20418;-53
2023/02/27 03:56:25;;;;;;;0.60;0.50;;;0.30;99.90;;;;;;5094395;28;20414;-55
2023/02/27 03:58:52;;;;;;;1.00;0.50;;;0.20;99.90;;;;;;5094398;28;20417;-51
2023/02/27 04:01:19;;;;;;;0.75;0.50;;;0.10;99.90;;;;;;5092957;28;20422;-53
2023/02/27 04:03:53;;;;;;;0.70;0.50;;;0.20;99.90;;;;;;5092671;28;20418;-56
2023/02/27 04:09:11;;;;;;;0.80;0.50;;;0.20;99.90;;;;;;5092303;28;20405;-55
2023/02/27 04:11:56;;;;;;;0.80;0.50;;;0.00;99.90;;;;;;5092597;28;20424;-54
2023/02/27 04:14:46;;;;;;;0.90;0.50;;;-0.20;99.90;;;;;;5095266;28;20476;-54
2023/02/27 04:17:21;;;;;;;0.80;0.50;;;-0.20;99.90;;;;;;5090805;28;20426;-52
2023/02/27 04:20:17;;;;;;;0.80;0.50;;;-0.10;99.90;;;;;;5097725;28;20430;-54
2023/02/27 04:22:49;;;;;;;1.00;0.50;;;-0.10;99.90;;;;;;5095790;28;20433;-54
2023/02/27 04:25:28;;;;;;;1.40;0.50;;;0.00;99.90;;;;;;5097533;28;20713;-55
2023/02/27 04:28:01;;;;;;;1.30;0.50;;;0.00;99.90;;;;;;5097386;28;20420;-53
2023/02/27 04:30:31;;;;;;;1.40;0.57;;;0.00;99.90;;;;;;5097118;28;20433;-53
2023/02/27 04:33:07;;;;;;;1.10;0.50;;;0.00;99.90;;;;;;5097836;28;20418;-50
2023/02/27 04:35:40;;;;;;;0.75;0.50;;;0.10;99.90;;;;;;5096584;28;20429;-55
2023/02/27 04:38:16;;;;;;;0.70;0.43;;;0.00;99.90;;;;;;5097702;28;20875;-57
2023/02/27 04:40:48;;;;;;;0.80;0.50;;;0.00;99.90;;;;;;5097500;28;20837;-54
2023/02/27 04:43:17;;;;;;;0.90;0.50;;;0.10;99.90;;;;;;5097742;28;20417;-49
2023/02/27 04:45:48;;;;;;;0.90;0.50;;;0.10;99.90;;;;;;5097677;28;20438;-52
2023/02/27 04:48:23;;;;;;;0.80;0.50;;;0.20;99.90;;;;;;5095668;28;20421;-51
2023/02/27 04:50:54;;;;;;;0.90;0.50;;;0.20;99.90;;;;;;5097699;28;20433;-51
2023/02/27 04:53:25;;;;;;;1.00;0.50;;;0.00;99.90;;;;;;5096012;28;20429;-54
2023/02/27 04:55:55;;;;;;;0.98;0.50;;;0.00;99.90;;;;;;5097156;28;20422;-55
2023/02/27 04:58:29;;;;;;;1.00;0.60;;;0.10;99.90;;;;;;5096098;28;20418;-54
2023/02/27 05:01:02;;;;;;;1.00;0.60;;;0.20;99.90;;;;;;5096594;28;20437;-54
2023/02/27 05:03:33;;;;;;;1.40;0.50;;;0.20;99.90;;;;;;5096055;28;20446;-54
2023/02/27 05:06:02;;;;;;;1.15;0.60;;;0.30;99.90;;;;;;5096764;28;20437;-53
2023/02/27 05:08:35;;;;;;;0.90;0.50;;;0.20;99.90;;;;;;5097430;28;20413;-55
2023/02/27 05:11:09;;;;;;;1.60;0.50;;;0.40;99.90;;;;;;5097076;28;20426;-55
2023/02/27 05:13:41;;;;;;;0.80;0.50;;;0.40;99.90;;;;;;5096484;28;20722;-53
2023/02/27 05:16:17;;;;;;;0.77;0.60;;;0.40;99.90;;;;;;5095620;28;20421;-51
2023/02/27 05:18:44;;;;;;;0.80;0.50;;;0.20;99.90;;;;;;5095921;28;20414;-53
2023/02/27 05:21:21;;;;;;;0.90;0.57;;;0.20;99.90;;;;;;5094919;28;20418;-53
2023/02/27 05:23:58;;;;;;;1.23;0.50;;;0.10;99.90;;;;;;5095239;28;20822;-55
2023/02/27 05:26:40;;;;;;;1.60;0.50;;;0.10;99.90;;;;;;5094522;28;20453;-55
2023/02/27 05:29:16;;;;;;;1.30;0.60;;;0.10;99.90;;;;;;5094146;28;20425;-55
2023/02/27 05:31:47;;;;;;;1.38;0.70;;;-0.10;99.90;;;;;;5095162;28;20443;-55
2023/02/27 05:34:21;;;;;;;1.00;0.60;;;-0.10;99.90;;;;;;5092558;28;20433;-49
2023/02/27 05:36:55;;;;;;;0.80;0.50;;;0.00;99.90;;;;;;5093970;28;20460;-55
2023/02/27 05:39:28;;;;;;;0.90;0.60;;;-0.10;99.90;;;;;;5093972;28;20741;-54
2023/02/27 05:42:00;;;;;;;1.40;0.60;;;0.10;99.90;;;;;;5093259;28;20421;-53
2023/02/27 05:44:32;;;;;;;0.80;0.50;;;0.50;99.90;;;;;;5092369;28;20441;-51
2023/02/27 05:47:04;;;;;;;0.80;0.50;;;0.40;99.90;;;;;;5093858;28;20434;-52
2023/02/27 05:49:33;;;;;;;0.90;0.60;;;0.40;99.90;;;;;;5095536;28;20418;-50
2023/02/27 05:52:04;;;;;;;1.00;0.60;;;0.20;99.90;;;;;;5095814;28;20422;-56
2023/02/27 05:54:38;;;;;;;2.43;0.70;;;-0.10;99.90;;;;;;5095126;28;20500;-51
2023/02/27 05:57:10;;;;;;;0.80;0.60;;;0.10;99.90;;;;;;5095538;28;20425;-55
2023/02/27 05:59:47;;;;;;;2.30;0.70;;;0.00;99.90;;;;;;5094868;28;20426;-52
2023/02/27 06:02:14;;;;;;;1.40;0.60;;;0.10;99.90;;;;;;5093855;28;20418;-55
2023/02/27 06:04:41;;;;;;;1.38;0.70;;;0.20;99.90;;;;;;5095337;28;20430;-54
2023/02/27 06:07:08;;;;;;;1.50;0.60;;;0.30;99.90;;;;;;5095205;28;20430;-54
2023/02/27 06:09:36;;;;;;;1.90;0.50;;;0.40;99.90;;;;;;5095163;28;20452;-53
2023/02/27 06:12:03;;;;;;;1.30;0.60;;;0.30;99.90;;;;;;5093677;28;20444;-55
2023/02/27 06:14:30;;;;;;;1.50;0.60;;;0.10;99.90;;;;;;5093851;28;20426;-54
2023/02/27 06:16:59;;;;;;;0.80;0.50;;;0.00;99.90;;;;;;5094849;28;20790;-55
2023/02/27 06:19:26;;;;;;;0.80;0.50;;;-0.20;99.90;;;;;;5093502;28;20511;-51
2023/02/27 06:21:53;;;;;;;0.90;0.50;;;-0.10;99.90;;;;;;5093108;28;20871;-54
2023/02/27 06:24:20;;;;;;;1.20;0.90;;;-0.20;99.90;;;;;;5092441;28;20430;-53
2023/02/27 06:26:47;;;;;;;1.48;0.60;;;-0.20;99.90;;;;;;5093873;28;20430;-55
2023/02/27 06:29:14;;;;;;;2.20;0.60;;;-0.20;99.90;;;;;;5093213;28;20430;-52
2023/02/27 06:31:41;;;;;;;1.10;0.60;;;0.10;99.90;;;;;;5091843;28;20441;-56
2023/02/27 06:34:09;;;;;;;0.90;0.60;;;0.00;99.90;;;;;;5092420;28;20429;-55
2023/02/27 06:36:36;;;;;;;0.80;0.60;;;0.00;99.90;;;;;;5090626;28;20573;-53
2023/02/27 06:39:05;;;;;;;0.93;0.60;;;0.10;99.90;;;;;;5091255;28;20428;-51
2023/02/27 06:41:32;;;;;;;2.30;0.65;;;0.20;99.90;;;;;;5089649;28;20449;-53
2023/02/27 06:43:59;;;;;;;0.90;0.57;;;0.10;99.90;;;;;;5090204;28;20445;-51
2023/02/27 06:46:26;;;;;;;1.50;0.60;;;0.10;99.90;;;;;;5091346;28;20734;-51
2023/02/27 06:48:53;;;;;;;1.10;0.65;;;-0.10;99.90;;;;;;5090034;28;20429;-52
2023/02/27 06:51:22;;;;;;;1.10;0.60;;;-0.10;99.90;;;;;;5091118;28;20720;-50
2023/02/27 06:53:49;;;;;;;2.50;0.70;;;0.00;99.90;;;;;;5092071;28;20418;-52
2023/02/27 06:56:16;;;;;;;1.10;0.65;;;-0.10;99.90;;;;;;5093621;28;20421;-51
2023/02/27 06:58:43;;;;;;;1.77;0.70;;;-0.10;99.90;;;;;;5092760;28;20872;-55
2023/02/27 07:01:12;;;;;;;1.35;0.60;;;0.00;99.90;;;;;;5090323;28;20428;-51
2023/02/27 07:03:39;;;;;;;1.67;0.70;;;0.00;99.90;;;;;;5092557;28;20428;-55
2023/02/27 07:06:06;;;;;;;1.73;0.60;;;0.10;99.90;;;;;;5093572;28;20445;-53
2023/02/27 07:08:35;;;;;;;1.30;0.70;;;0.10;99.90;;;;;;5093790;28;20426;-52
2023/02/27 07:11:02;;;;;;;1.83;0.70;;;0.10;99.90;;;;;;5093782;28;20461;-55
2023/02/27 07:13:29;;;;;;;1.50;0.83;;;0.20;99.90;;;;;;5093519;28;20422;-52
2023/02/27 07:15:56;;;;;;;1.70;0.80;;;0.20;99.90;;;;;;5093819;28;20516;-51
2023/02/27 07:18:24;;;;;;;1.50;0.70;;;0.30;99.90;;;;;;5085934;28;20449;-54
2023/02/27 07:20:54;;;;;;;2.00;0.60;;;0.50;99.90;;;;;;5076767;28;20430;-54
2023/02/27 07:23:21;;;;;;;0.93;0.67;;;0.60;99.90;;;;;;5090601;28;20575;-51
2023/02/27 07:25:50;;;;;;;2.90;0.60;;;0.50;99.90;;;;;;5092716;28;20418;-50
2023/02/27 07:28:17;;;;;;;2.80;0.70;;;0.40;99.90;;;;;;5091826;28;20414;-55
2023/02/27 07:30:44;;;;;;;1.03;0.70;;;0.70;99.90;;;;;;5090987;28;20517;-56
2023/02/27 07:33:12;;;;;;;1.20;0.70;;;0.50;99.90;;;;;;5091000;28;20418;-55
2023/02/27 07:35:39;;;;;;;2.42;0.70;;;0.50;99.90;;;;;;5085073;28;20426;-56
2023/02/27 07:38:06;;;;;;;1.90;0.70;;;0.30;99.90;;;;;;5090061;28;20471;-55
2023/02/27 07:40:33;;;;;;;1.08;0.70;;;0.50;99.90;;;;;;5091190;28;20463;-56
2023/02/27 07:43:01;;;;;;;1.50;0.70;;;0.60;99.90;;;;;;5088920;28;20452;-56
2023/02/27 07:45:29;;;;;;;1.02;0.70;;;0.60;99.90;;;;;;5091468;28;20429;-56
2023/02/27 07:47:56;;;;;;;1.90;0.90;;;0.60;99.90;;;;;;5092932;28;20441;-55
2023/02/27 07:50:23;;;;;;;1.00;0.60;;;0.60;99.90;;;;;;5094525;28;20436;-55
2023/02/27 07:52:52;;;;;;;1.10;0.70;;;0.70;99.90;;;;;;5096805;28;20422;-56
2023/02/27 07:55:19;;;;;;;1.50;0.70;;;0.60;99.90;;;;;;5094616;28;20432;-54
2023/02/27 07:57:46;;;;;;;1.10;0.50;;;0.70;99.90;;;;;;5094718;28;20425;-55
2023/02/27 08:00:15;;;;;;;2.00;0.60;;;0.80;99.90;;;;;;5095695;28;20430;-58
2023/02/27 08:02:42;;;;;;;1.10;0.70;;;0.80;99.90;;;;;;5094994;28;20418;-54
2023/02/27 08:05:10;;;;;;;0.90;0.60;;;0.70;99.90;;;;;;5094183;28;20433;-56
2023/02/27 08:07:37;;;;;;;2.83;0.70;;;0.80;99.90;;;;;;5096370;28;20425;-53
2023/02/27 08:10:05;;;;;;;1.00;0.60;;;0.70;99.90;;;;;;5095627;28;20421;-54
2023/02/27 08:12:32;;;;;;;1.30;0.60;;;0.60;99.90;;;;;;5093852;28;20431;-56
2023/02/27 08:14:59;;;;;;;0.90;0.70;;;0.60;99.90;;;;;;5094706;28;20432;-56
2023/02/27 08:17:27;;;;;;;1.40;0.60;;;0.50;99.90;;;;;;5094888;28;20417;-57
2023/02/27 08:19:54;;;;;;;1.10;0.60;;;0.80;99.90;;;;;;5093827;28;20432;-56
2023/02/27 08:22:22;;;;;;;1.42;0.60;;;0.90;99.90;;;;;;5095636;28;20428;-58
2023/02/27 08:24:49;;;;;;;0.80;0.60;;;1.10;99.90;;;;;;5095571;28;20425;-58
2023/02/27 08:27:16;;;;;;;0.90;0.60;;;1.10;99.90;;;;;;5085923;28;20426;-58
2023/02/27 08:29:44;;;;;;;1.40;0.70;;;1.20;99.90;;;;;;5092327;28;20421;-58
2023/02/27 08:32:11;;;;;;;3.30;0.70;;;1.30;99.90;;;;;;5093465;28;20454;-58
2023/02/27 08:34:40;;;;;;;1.20;0.60;;;1.30;99.90;;;;;;5075778;28;20444;-59
2023/02/27 08:37:07;;;;;;;1.20;0.60;;;1.20;99.90;;;;;;5076173;28;20478;-55
2023/02/27 08:39:34;;;;;;;1.00;0.60;;;1.20;99.90;;;;;;5075817;28;20875;-56
2023/02/27 08:42:01;;;;;;;2.30;0.60;;;1.10;99.90;;;;;;5074408;28;20551;-58
2023/02/27 08:44:28;;;;;;;1.40;0.60;;;1.20;99.90;;;;;;5073768;28;20485;-55
2023/02/27 08:46:55;;;;;;;1.23;0.60;;;1.20;99.90;;;;;;5073725;28;20443;-58
2023/02/27 08:49:24;;;;;;;0.95;0.60;;;1.30;99.90;;;;;;5075515;28;20435;-58
2023/02/27 08:51:53;;;;;;;1.70;0.60;;;1.50;99.90;;;;;;5074829;28;20423;-58
2023/02/27 08:54:20;;;;;;;1.30;0.60;;;1.60;99.90;;;;;;5078396;28;20429;-57
2023/02/27 08:56:47;;;;;;;1.60;0.70;;;1.70;99.90;;;;;;5091166;28;20500;-58
2023/02/27 08:59:15;;;;;;;1.20;0.70;;;1.70;99.90;;;;;;5095440;28;20841;-59
2023/02/27 09:01:42;;;;;;;1.05;0.70;;;1.80;99.90;;;;;;5094175;28;20421;-59
2023/02/27 09:04:10;;;;;;;1.60;0.80;;;1.90;99.90;;;;;;5094442;28;20418;-59
2023/02/27 09:06:37;;;;;;;1.80;0.70;;;1.90;99.90;;;;;;5085912;28;20432;-59
2023/02/27 09:09:06;;;;;;;1.98;0.60;;;2.00;99.90;;;;;;5094139;28;20418;-59
2023/02/27 09:11:33;;;;;;;3.20;0.80;;;2.10;99.90;;;;;;5094512;28;20708;-58
2023/02/27 09:14:01;;;;;;;1.75;0.60;;;2.10;99.90;;;;;;5094046;28;20418;-58
2023/02/27 09:16:28;;;;;;;1.70;0.60;;;2.10;99.90;;;;;;5093878;28;20943;-57
2023/02/27 09:18:55;;;;;;;1.00;0.70;;;2.10;99.90;;;;;;5093051;28;20449;-58
2023/02/27 09:21:23;;;;;;;1.23;0.70;;;2.10;99.90;;;;;;5093474;28;20425;-58
2023/02/27 09:23:50;;;;;;;2.00;0.70;;;2.10;99.90;;;;;;5094103;28;20430;-58
2023/02/27 09:26:20;;;;;;;1.10;0.60;;;2.10;99.90;;;;;;5085771;28;20421;-58
2023/02/27 09:28:48;;;;;;;1.70;0.70;;;2.20;99.90;;;;;;5094125;28;20424;-58
2023/02/27 09:31:17;;;;;;;1.00;0.55;;;2.30;99.90;;;;;;5094388;28;20428;-59
2023/02/27 09:33:45;;;;;;;1.10;0.60;;;2.40;99.90;;;;;;5092858;28;20826;-59
2023/02/27 09:36:14;;;;;;;1.17;0.60;;;2.50;99.90;;;;;;5091847;28;20422;-59
2023/02/27 09:38:42;;;;;;;0.90;0.60;;;2.60;99.90;;;;;;5093891;28;20410;-58
2023/02/27 09:41:33;;;;;;;0.70;0.50;;;2.70;99.90;;;;;;5093227;28;20593;-59
2023/02/27 09:44:01;;;;;;;1.20;0.60;;;2.80;99.90;;;;;;5092932;28;20424;-59
2023/02/27 09:46:30;;;;;;;1.20;0.60;;;2.80;99.90;;;;;;5093863;28;20454;-59
2023/02/27 09:49:02;;;;;;;0.93;0.60;;;2.80;99.90;;;;;;5094309;28;20417;-59
2023/02/27 09:51:30;;;;;;;2.33;0.60;;;2.80;99.90;;;;;;5093605;28;20623;-60
2023/02/27 09:54:00;;;;;;;0.90;0.50;;;2.90;99.90;;;;;;5094516;28;20417;-59
2023/02/27 09:56:34;;;;;;;1.35;0.70;;;2.90;99.90;;;;;;5085442;28;20508;-57
2023/02/27 09:59:13;;;;;;;1.00;0.60;;;3.00;99.90;;;;;;5092288;28;20425;-58
2023/02/27 10:01:45;;;;;;;1.60;0.60;;;3.10;99.90;;;;;;5093772;28;20433;-56
2023/02/27 10:04:34;;;;;;;0.90;0.60;;;3.30;99.90;;;;;;5093001;28;20842;-57
2023/02/27 10:07:12;;;;;;;1.70;0.60;;;3.40;99.90;;;;;;5093490;28;20430;-56
2023/02/27 10:09:52;;;;;;;0.90;0.50;;;3.50;99.90;;;;;;5094421;28;20517;-56
2023/02/27 10:12:36;;;;;;;1.80;0.60;;;3.70;99.90;;;;;;5094110;28;20414;-57
2023/02/27 10:15:12;;;;;;;0.60;0.50;;;3.90;99.90;;;;;;5090958;28;20479;-61
2023/02/27 10:17:48;;;;;;;0.90;0.50;;;4.10;99.90;;;;;;5094379;28;20414;-54
2023/02/27 10:20:24;;;;;;;3.10;0.60;;;4.20;99.90;;;;;;5092292;28;20868;-58
2023/02/27 10:22:56;;;;;;;0.90;0.50;;;4.30;99.90;;;;;;5092457;28;20425;-58
2023/02/27 10:25:25;;;;;;;0.70;0.40;;;4.00;99.90;;;;;;5091392;28;20465;-54
2023/02/27 10:27:59;;;;;;;0.60;0.40;;;4.00;99.90;;;;;;5087498;28;20518;-54
2023/02/27 10:30:29;;;;;;;0.80;0.50;;;3.90;99.70;;;;;;5077027;28;20764;-57
2023/02/27 10:33:06;;;;;;;0.90;0.50;;;3.80;99.90;;;;;;5087410;28;20426;-57
2023/02/27 10:35:37;;;;;;;1.20;0.43;;;3.90;99.90;;;;;;5090871;28;20489;-56
2023/02/27 10:38:12;;;;;;;1.23;0.50;;;4.00;99.80;;;;;;5087098;28;20433;-57
2023/02/27 10:40:42;;;;;;;1.05;0.40;;;4.00;98.80;;;;;;5082160;28;20522;-58
2023/02/27 10:43:15;;;;;;;0.70;0.50;;;4.30;98.70;;;;;;5081152;28;20438;-57
2023/02/27 10:45:44;;;;;;;1.20;0.50;;;4.70;99.20;;;;;;5089826;28;20912;-56
2023/02/27 10:48:14;;;;;;;0.80;0.50;;;5.00;97.80;;;;;;5088980;28;20435;-56
2023/02/27 10:50:45;;;;;;;0.73;0.40;;;5.30;99.60;;;;;;5093000;28;20473;-57
2023/02/27 10:53:23;;;;;;;0.90;0.40;;;5.40;98.40;;;;;;5090452;28;20723;-56
2023/02/27 10:56:03;;;;;;;0.80;0.50;;;5.20;94.50;;;;;;5087185;28;20864;-56
2023/02/27 10:58:34;;;;;;;2.10;0.50;;;5.50;94.20;;;;;;5085559;28;20749;-57
2023/02/27 11:01:04;;;;;;;1.87;0.50;;;5.70;91.30;;;;;;5086385;28;20775;-56
2023/02/27 11:03:36;;;;;;;0.85;0.50;;;5.90;93.00;;;;;;5086925;28;20727;-57
2023/02/27 11:06:09;;;;;;;1.50;0.55;;;6.10;93.80;;;;;;5089143;28;20437;-55
2023/02/27 11:08:38;;;;;;;0.98;0.50;;;6.20;94.00;;;;;;5085844;28;20430;-55
2023/02/27 11:11:08;;;;;;;1.00;0.50;;;6.30;92.40;;;;;;5090673;28;20434;-57
2023/02/27 11:13:40;;;;;;;0.60;0.40;;;6.40;85.30;;;;;;5089904;28;21034;-55
2023/02/27 11:16:11;;;;;;;1.10;0.60;;;6.50;80.00;;;;;;5090326;28;20434;-57
2023/02/27 11:18:41;;;;;;;1.50;0.70;;;6.70;79.40;;;;;;5090021;28;20422;-56
2023/02/27 11:21:20;;;;;;;0.90;0.43;;;6.90;76.50;;;;;;5090087;28;20440;-55
2023/02/27 11:23:53;;;;;;;1.60;0.40;;;6.90;74.10;;;;;;5090429;28;20426;-56
2023/02/27 11:26:25;;;;;;;1.00;0.50;;;6.90;74.20;;;;;;5094709;28;20413;-54
2023/02/27 11:29:16;;;;;;;0.80;0.50;;;6.80;72.60;;;;;;5089389;28;21052;-54
2023/02/27 11:31:51;;;;;;;0.90;0.50;;;6.60;70.30;;;;;;5090676;28;20426;-56
2023/02/27 11:34:26;;;;;;;0.80;0.40;;;6.40;70.30;;;;;;5090185;28;20430;-54
2023/02/27 11:36:56;;;;;;;1.00;0.50;;;6.70;69.80;;;;;;5090120;28;20423;-56
2023/02/27 11:39:29;;;;;;;1.20;0.40;;;6.60;69.50;;;;;;5076460;28;20434;-56
2023/02/27 11:42:05;;;;;;;0.98;0.40;;;6.50;70.70;;;;;;5091185;28;20422;-54
2023/02/27 11:44:34;;;;;;;1.20;0.40;;;6.50;68.50;;;;;;5096162;28;20429;-53
2023/02/27 11:47:12;;;;;;;1.55;0.50;;;6.70;68.10;;;;;;5095029;28;20459;-54
2023/02/27 11:49:55;;;;;;;1.20;0.50;;;6.90;69.00;;;;;;5095062;28;20422;-53
2023/02/27 11:52:28;;;;;;;1.00;0.40;;;6.50;66.10;;;;;;5094724;28;20884;-55
2023/02/27 11:54:58;;;;;;;1.30;0.50;;;6.50;66.70;;;;;;5095434;28;20520;-55
2023/02/27 11:57:29;;;;;;;1.17;0.50;;;6.00;66.80;;;;;;5095318;28;20420;-55
2023/02/27 12:00:05;;;;;;;1.92;1.00;;;6.30;69.70;;;;;;5093713;28;20534;-53
2023/02/27 12:02:43;;;;;;;1.50;0.60;;;6.40;70.50;;;;;;5092347;28;20418;-55
2023/02/27 12:05:17;;;;;;;0.87;0.50;;;6.30;68.10;;;;;;5078783;28;20430;-54
2023/02/27 12:07:51;;;;;;;0.90;0.43;;;6.30;68.30;;;;;;5092400;28;20492;-50
2023/02/27 12:10:21;;;;;;;0.60;0.50;;;6.50;68.60;;;;;;5094558;28;20522;-53
2023/02/27 12:12:52;;;;;;;0.77;0.45;;;6.40;67.80;;;;;;5090945;28;20483;-56
2023/02/27 12:15:30;;;;;;;0.85;0.50;;;6.70;68.30;;;;;;5093914;28;20515;-54
2023/02/27 12:18:08;;;;;;;0.90;0.57;;;7.10;69.00;;;;;;5094850;28;20410;-56
2023/02/27 12:20:39;;;;;;;0.70;0.40;;;7.30;68.00;;;;;;5095310;28;20425;-54
2023/02/27 12:23:18;;;;;;;1.10;0.50;;;7.00;68.00;;;;;;5094374;28;20425;-54
2023/02/27 12:25:51;;;;;;;1.10;0.50;;;6.60;67.30;;;;;;5092403;28;20426;-54
2023/02/27 12:28:46;;;;;;;0.90;0.50;;;6.30;68.70;;;;;;5091598;28;20452;-54
2023/02/27 12:31:32;;;;;;;1.10;0.50;;;6.20;68.30;;;;;;5092266;28;20418;-53
2023/02/27 12:34:05;;;;;;;0.73;0.40;;;6.20;69.80;;;;;;5092695;28;20426;-55
2023/02/27 12:36:33;;;;;;;0.95;0.50;;;6.00;69.10;;;;;;5092594;28;20845;-55
2023/02/27 12:39:03;;;;;;;1.00;0.50;;;5.90;70.10;;;;;;5086645;28;20426;-54
2023/02/27 12:41:58;;;;;;;0.80;0.45;;;5.70;69.10;;;;;;5090751;28;20422;-55
2023/02/27 12:44:43;;;;;;;1.20;0.65;;;5.50;70.30;;;;;;5085261;28;20847;-56
2023/02/27 12:47:25;;;;;;;1.55;0.70;;;5.50;70.90;;;;;;5079317;28;20475;-53
2023/02/27 12:49:59;;;;;;;1.50;0.70;;;5.40;73.40;;;;;;5083403;28;20790;-56
2023/02/27 12:52:40;;;;;;;0.70;0.43;;;5.30;74.60;;;;;;5092989;28;20428;-54
2023/02/27 12:55:13;;;;;;;0.95;0.50;;;5.50;75.10;;;;;;5090981;28;20435;-55
2023/02/27 12:58:04;;;;;;;0.85;0.50;;;5.70;71.10;;;;;;5078453;28;20435;-56
2023/02/27 13:00:40;;;;;;;0.90;0.60;;;6.00;71.70;;;;;;5090003;28;20441;-56
2023/02/27 13:03:16;;;;;;;1.10;0.40;;;5.90;70.00;;;;;;5091858;28;20422;-54
2023/02/27 13:05:48;;;;;;;0.80;0.50;;;6.00;69.90;;;;;;5090573;28;20874;-55
2023/02/27 13:08:42;;;;;;;0.70;0.50;;;6.00;68.30;;;;;;5089108;28;20509;-56
2023/02/27 13:11:22;;;;;;;1.00;0.60;;;5.90;68.20;;;;;;5088789;28;20491;-56
2023/02/27 13:13:55;;;;;;;0.70;0.50;;;5.70;68.00;;;;;;5090921;28;20800;-55
2023/02/27 13:16:26;;;;;;;0.70;0.50;;;5.60;69.20;;;;;;5083229;28;20467;-57
2023/02/27 13:19:00;;;;;;;1.00;0.50;;;5.50;71.00;;;;;;5092097;28;20410;-57
2023/02/27 13:21:31;;;;;;;1.00;0.47;;;5.40;71.30;;;;;;5092630;28;20430;-56